Eagle Turin — 9VMG6 — position and weather

sailwx.info

Track history (hours):
 
Tides and Currents Weather Stations Pressure Air Temp Water Temp Dewpoint Dewpoint Depression Visibility Wind Speed Wind Dir Waves Ship Positions

Eagle Turin

Last reported at 2015-May-28 07:31 UTC. Time now 2015-May-28 22:10 UTC.
Position N 28°45' W 094°25'.

Length 246 m; draft 8.5 m.

Type: Tanker. MMSI: 565770000.

Date/timePositionNaut miles runAvg speedWind from/ knotsBaromVisibWave heightAir tempDewpointWater temp
2015-May-28 07:31N 28°45' W 094°25'2412.1
2015-May-28 05:32N 29°09' W 094°27'1511.8
2015-May-28 04:14N 29°19' W 094°39'811.8
2015-May-28 03:33N 29°22' W 094°48'1212.3
2015-May-28 02:33N 29°33' W 094°54'1010.4
2015-May-28 01:33N 29°42' W 095°00'2 2.1
2015-May-28 00:33N 29°44' W 095°01'0 0.0
2015-May-27 23:33N 29°44' W 095°01'0 0.0
2015-May-27 22:33N 29°44' W 095°01'0 0.0
2015-May-27 21:33N 29°44' W 095°01'0 0.0
2015-May-27 20:33N 29°44' W 095°01'0 0.0
2015-May-27 19:27N 29°44' W 095°01'0 0.0
2015-May-27 18:30N 29°44' W 095°01'0 0.0
2015-May-27 17:33N 29°44' W 095°01'0 0.0
2015-May-27 16:33N 29°44' W 095°01'0 0.0
2015-May-27 15:33N 29°44' W 095°01'0 0.0
2015-May-27 14:33N 29°44' W 095°01'0 0.0
2015-May-27 13:33N 29°44' W 095°01'0 0.0
2015-May-27 12:33N 29°44' W 095°01'0 0.0
2015-May-27 11:30N 29°44' W 095°01'0 0.0
2015-May-27 10:33N 29°44' W 095°01'0 0.0
2015-May-27 09:33N 29°44' W 095°01'0 0.0
2015-May-27 08:30N 29°44' W 095°01'0 0.0
2015-May-27 07:30N 29°44' W 095°01'0 0.0
2015-May-27 06:33N 29°44' W 095°01'0 0.0
2015-May-27 05:33N 29°44' W 095°01'0 0.0
2015-May-27 04:33N 29°44' W 095°01'0 0.0
2015-May-27 03:33N 29°44' W 095°01'0 0.0
2015-May-27 02:33N 29°44' W 095°01'0 0.0
2015-May-27 01:33N 29°44' W 095°01'0 0.0
2015-May-27 00:24N 29°44' W 095°01'0 0.0
2015-May-26 23:30N 29°44' W 095°01'0 0.0
2015-May-26 22:33N 29°44' W 095°01'0 0.0
2015-May-26 21:33N 29°44' W 095°01'0 0.0
2015-May-26 20:33N 29°44' W 095°01'0 0.0
2015-May-26 19:33N 29°44' W 095°01'0 0.0
2015-May-26 18:33N 29°44' W 095°01'0 0.0
2015-May-26 17:33N 29°44' W 095°01'0 0.0
2015-May-26 16:30N 29°44' W 095°01'0 0.0
2015-May-26 15:33N 29°44' W 095°01'0 0.0
2015-May-26 14:33N 29°44' W 095°01'0 0.0
2015-May-26 13:33N 29°44' W 095°01'0 0.0
2015-May-26 12:33N 29°44' W 095°01'0 0.0
2015-May-26 11:33N 29°44' W 095°01'0 0.0
2015-May-26 10:33N 29°44' W 095°01'0 0.0
2015-May-26 09:33N 29°44' W 095°01'0 0.0
2015-May-26 08:33N 29°44' W 095°01'0 0.0
2015-May-26 07:33N 29°44' W 095°01'0 0.0
2015-May-26 06:33N 29°44' W 095°01'0 0.0
2015-May-26 05:33N 29°44' W 095°01'0 0.0
2015-May-26 04:33N 29°44' W 095°01'0 0.0
2015-May-26 03:33N 29°44' W 095°01'0 0.0
2015-May-26 02:15N 29°44' W 095°01'0 0.0
2015-May-26 01:33N 29°44' W 095°01'2 2.0
2015-May-26 00:33N 29°42' W 095°00'8 7.8
2015-May-25 23:33N 29°35' W 094°56'1010.0
2015-May-25 22:33N 29°27' W 094°50'9 8.8
2015-May-25 21:33N 29°21' W 094°43'15 1.1
2015-May-25 08:31N 29°08' W 094°34'  
2015-May-18 17:00N 25°48' W 086°18'   020 / 121022.0 5.4 1.030.027.4
Track history (hours):
 
Tides and Currents Weather Stations Pressure Air Temp Water Temp Dewpoint Dewpoint Depression Visibility Wind Speed Wind Dir Waves Ship Positions

Eagle Turin

Last reported at 2015-May-28 07:31 UTC. Time now 2015-May-28 22:10 UTC.
Position N 28°45' W 094°25'.

Length 246 m; draft 8.5 m.

Type: Tanker. MMSI: 565770000.

Date/timePositionNaut miles runAvg speedWind from/ knotsBaromVisibWave heightAir tempDewpointWater temp
2015-May-28 07:31N 28°45' W 094°25'2412.1
2015-May-28 05:32N 29°09' W 094°27'1511.8
2015-May-28 04:14N 29°19' W 094°39'811.8
2015-May-28 03:33N 29°22' W 094°48'1212.3
2015-May-28 02:33N 29°33' W 094°54'1010.4
2015-May-28 01:33N 29°42' W 095°00'2 2.1
2015-May-28 00:33N 29°44' W 095°01'0 0.0
2015-May-27 23:33N 29°44' W 095°01'0 0.0
2015-May-27 22:33N 29°44' W 095°01'0 0.0
2015-May-27 21:33N 29°44' W 095°01'0 0.0
2015-May-27 20:33N 29°44' W 095°01'0 0.0
2015-May-27 19:27N 29°44' W 095°01'0 0.0
2015-May-27 18:30N 29°44' W 095°01'0 0.0
2015-May-27 17:33N 29°44' W 095°01'0 0.0
2015-May-27 16:33N 29°44' W 095°01'0 0.0
2015-May-27 15:33N 29°44' W 095°01'0 0.0
2015-May-27 14:33N 29°44' W 095°01'0 0.0
2015-May-27 13:33N 29°44' W 095°01'0 0.0
2015-May-27 12:33N 29°44' W 095°01'0 0.0
2015-May-27 11:30N 29°44' W 095°01'0 0.0
2015-May-27 10:33N 29°44' W 095°01'0 0.0
2015-May-27 09:33N 29°44' W 095°01'0 0.0
2015-May-27 08:30N 29°44' W 095°01'0 0.0
2015-May-27 07:30N 29°44' W 095°01'0 0.0
2015-May-27 06:33N 29°44' W 095°01'0 0.0
2015-May-27 05:33N 29°44' W 095°01'0 0.0
2015-May-27 04:33N 29°44' W 095°01'0 0.0
2015-May-27 03:33N 29°44' W 095°01'0 0.0
2015-May-27 02:33N 29°44' W 095°01'0 0.0
2015-May-27 01:33N 29°44' W 095°01'0 0.0
2015-May-27 00:24N 29°44' W 095°01'0 0.0
2015-May-26 23:30N 29°44' W 095°01'0 0.0
2015-May-26 22:33N 29°44' W 095°01'0 0.0
2015-May-26 21:33N 29°44' W 095°01'0 0.0
2015-May-26 20:33N 29°44' W 095°01'0 0.0
2015-May-26 19:33N 29°44' W 095°01'0 0.0
2015-May-26 18:33N 29°44' W 095°01'0 0.0
2015-May-26 17:33N 29°44' W 095°01'0 0.0
2015-May-26 16:30N 29°44' W 095°01'0 0.0
2015-May-26 15:33N 29°44' W 095°01'0 0.0
2015-May-26 14:33N 29°44' W 095°01'0 0.0
2015-May-26 13:33N 29°44' W 095°01'0 0.0
2015-May-26 12:33N 29°44' W 095°01'0 0.0
2015-May-26 11:33N 29°44' W 095°01'0 0.0
2015-May-26 10:33N 29°44' W 095°01'0 0.0
2015-May-26 09:33N 29°44' W 095°01'0 0.0
2015-May-26 08:33N 29°44' W 095°01'0 0.0
2015-May-26 07:33N 29°44' W 095°01'0 0.0
2015-May-26 06:33N 29°44' W 095°01'0 0.0
2015-May-26 05:33N 29°44' W 095°01'0 0.0
2015-May-26 04:33N 29°44' W 095°01'0 0.0
2015-May-26 03:33N 29°44' W 095°01'0 0.0
2015-May-26 02:15N 29°44' W 095°01'0 0.0
2015-May-26 01:33N 29°44' W 095°01'2 2.0
2015-May-26 00:33N 29°42' W 095°00'8 7.8
2015-May-25 23:33N 29°35' W 094°56'1010.0
2015-May-25 22:33N 29°27' W 094°50'9 8.8
2015-May-25 21:33N 29°21' W 094°43'15 1.1
2015-May-25 08:31N 29°08' W 094°34'  
2015-May-18 17:00N 25°48' W 086°18'   020 / 121022.0 5.4 1.030.027.4

Dump ship's entire track history